createdAt,value
2019-06-18T00:00:33.248Z,13.23
2019-06-18T00:03:01.120Z,16.57
2019-06-18T00:05:31.236Z,17.67
2019-06-18T00:08:00.775Z,17.33
2019-06-18T00:10:27.138Z,14.70
2019-06-18T00:12:54.373Z,13.07
2019-06-18T00:15:21.607Z,13.30
2019-06-18T00:17:50.721Z,17.13
2019-06-18T00:20:20.445Z,15.93
2019-06-18T00:22:46.857Z,13.63
2019-06-18T00:25:14.089Z,15.07
2019-06-18T00:27:41.434Z,12.23
2019-06-18T00:30:11.146Z,13.17
2019-06-18T00:32:37.989Z,14.23
2019-06-18T00:35:06.316Z,13.77
2019-06-18T00:37:33.838Z,13.40
2019-06-18T00:40:01.204Z,13.83
2019-06-18T00:42:28.426Z,13.73
2019-06-18T00:44:56.668Z,13.40
2019-06-18T00:47:24.101Z,16.57
2019-06-18T00:49:51.617Z,13.00
2019-06-18T00:52:19.075Z,14.93
2019-06-18T00:54:48.213Z,14.57
2019-06-18T00:57:17.664Z,13.50
2019-06-18T00:59:47.013Z,13.40
2019-06-18T01:02:13.706Z,14.10
2019-06-18T01:04:40.949Z,13.23
2019-06-18T01:07:08.457Z,14.77
2019-06-18T01:09:37.242Z,13.20
2019-06-18T01:12:06.862Z,13.00
2019-06-18T01:14:36.455Z,18.40
2019-06-18T01:17:03.116Z,16.83
2019-06-18T01:19:30.406Z,14.40
2019-06-18T01:21:57.604Z,15.97
2019-06-18T01:24:24.642Z,14.90
2019-06-18T01:26:52.195Z,19.70
2019-06-18T01:29:19.513Z,14.67
2019-06-18T01:31:47.095Z,14.87
2019-06-18T01:34:14.402Z,14.10
2019-06-18T01:36:43.228Z,17.63
2019-06-18T01:39:13.154Z,14.87
2019-06-18T01:41:40.021Z,14.93
2019-06-18T01:44:07.259Z,16.03
2019-06-18T01:46:38.473Z,15.30
2019-06-18T01:49:03.849Z,20.13
2019-06-18T01:51:33.361Z,18.90
2019-06-18T01:54:02.575Z,14.53
2019-06-18T01:56:29.598Z,16.47
2019-06-18T01:58:57.045Z,18.90
2019-06-18T02:01:24.277Z,15.90
2019-06-18T02:03:52.944Z,20.50
2019-06-18T02:06:20.297Z,15.93
2019-06-18T02:08:47.550Z,15.40
2019-06-18T02:11:14.766Z,19.23
2019-06-18T02:13:42.569Z,13.93
2019-06-18T02:16:12.968Z,14.80
2019-06-18T02:18:39.197Z,20.00
2019-06-18T02:21:06.426Z,16.13
2019-06-18T02:23:33.544Z,16.50
2019-06-18T02:26:02.534Z,17.00
2019-06-18T02:28:33.072Z,17.77
2019-06-18T02:30:59.403Z,21.23
2019-06-18T02:33:26.810Z,21.43
2019-06-18T02:35:54.043Z,22.20
2019-06-18T02:38:23.452Z,18.33
2019-06-18T02:40:52.800Z,20.63
2019-06-18T02:43:22.164Z,22.03
2019-06-18T02:45:49.442Z,20.53
2019-06-18T02:48:16.818Z,22.17
2019-06-18T02:50:44.015Z,18.83
2019-06-18T02:53:13.098Z,20.87
2019-06-18T02:55:40.552Z,21.67
2019-06-18T02:58:07.797Z,19.17
2019-06-18T03:00:46.493Z,19.97
2019-06-18T03:03:13.789Z,23.83
2019-06-18T03:05:42.668Z,20.07
2019-06-18T03:08:12.447Z,18.17
2019-06-18T03:10:39.193Z,19.63
2019-06-18T03:13:06.418Z,19.23
2019-06-18T03:15:33.720Z,18.43
2019-06-18T03:18:02.444Z,18.53
2019-06-18T03:20:30.045Z,21.60
2019-06-18T03:22:57.433Z,20.30
2019-06-18T03:25:24.669Z,18.97
2019-06-18T03:27:52.847Z,18.03
2019-06-18T03:30:23.879Z,19.20
2019-06-18T03:32:49.742Z,17.63
2019-06-18T03:35:18.890Z,19.03
2019-06-18T03:37:46.149Z,21.63
2019-06-18T03:40:13.253Z,19.50
2019-06-18T03:42:42.542Z,17.30
2019-06-18T03:45:09.591Z,18.93
2019-06-18T03:47:45.934Z,18.13
2019-06-18T03:50:05.972Z,21.17
2019-06-18T03:52:33.307Z,19.10
2019-06-18T03:55:03.626Z,18.90
2019-06-18T03:57:29.793Z,18.73
2019-06-18T03:59:57.059Z,18.33
2019-06-18T04:02:24.602Z,24.20
2019-06-18T04:04:52.969Z,19.17
2019-06-18T04:07:22.449Z,19.70
2019-06-18T04:09:49.871Z,18.27
2019-06-18T04:12:17.009Z,20.47
2019-06-18T04:14:44.061Z,19.70
2019-06-18T04:17:12.759Z,20.47
2019-06-18T04:19:43.284Z,20.57
2019-06-18T04:22:09.581Z,24.37
2019-06-18T04:24:36.943Z,21.70
2019-06-18T04:27:04.179Z,19.70
2019-06-18T04:29:33.509Z,21.97
2019-06-18T04:32:02.697Z,21.27
2019-06-18T04:34:32.480Z,22.67
2019-06-18T04:36:59.236Z,20.83
2019-06-18T04:39:26.359Z,21.10
2019-06-18T04:41:53.618Z,25.83
2019-06-18T04:44:22.694Z,23.53
2019-06-18T04:46:49.961Z,30.40
2019-06-18T04:49:17.238Z,29.33
2019-06-18T04:51:44.341Z,31.70
2019-06-18T04:54:13.609Z,35.00
2019-06-18T04:56:43.187Z,26.33
2019-06-18T04:59:12.954Z,39.70
2019-06-18T05:01:39.092Z,37.33
2019-06-18T05:04:06.317Z,49.67
2019-06-18T05:06:33.388Z,44.27
2019-06-18T05:09:02.986Z,27.73
2019-06-18T05:11:29.762Z,42.37
2019-06-18T05:13:57.205Z,43.60
2019-06-18T05:16:24.245Z,62.37
2019-06-18T05:18:53.287Z,69.47
2019-06-18T05:21:22.298Z,63.23
2019-06-18T05:23:49.718Z,80.73
2019-06-18T05:26:16.752Z,104.50
2019-06-18T05:28:44.010Z,201.60
2019-06-18T05:31:13.606Z,165.73
2019-06-18T05:33:42.510Z,145.97
2019-06-18T05:36:09.558Z,147.50
2019-06-18T05:38:36.798Z,216.83
2019-06-18T05:41:04.072Z,301.47
2019-06-18T05:43:32.829Z,303.50
2019-06-18T05:46:00.165Z,312.90
2019-06-18T05:48:27.366Z,322.23
2019-06-18T05:50:54.889Z,378.53
2019-06-18T05:53:22.492Z,398.97
2019-06-18T05:55:52.417Z,379.50
2019-06-18T05:58:19.206Z,376.00
2019-06-18T06:00:46.555Z,356.97
2019-06-18T06:03:14.058Z,373.77
2019-06-18T06:05:42.170Z,339.50
2019-06-18T06:08:10.042Z,335.53
2019-06-18T06:10:37.211Z,331.67
2019-06-18T06:13:04.449Z,332.47
2019-06-18T06:15:32.914Z,355.83
2019-06-18T06:18:02.534Z,304.43
2019-06-18T06:20:29.400Z,258.80
2019-06-18T06:22:56.612Z,201.80
2019-06-18T06:25:24.575Z,232.23
2019-06-18T06:27:52.819Z,324.77
2019-06-18T06:30:22.884Z,210.23
2019-06-18T06:32:49.758Z,164.23
2019-06-18T06:35:16.894Z,106.13
2019-06-18T06:37:44.104Z,101.83
2019-06-18T06:40:13.066Z,83.33
2019-06-18T06:42:42.635Z,82.70
2019-06-18T06:45:09.570Z,96.73
2019-06-18T06:47:37.069Z,83.40
2019-06-18T06:50:05.945Z,59.37
2019-06-18T06:52:33.345Z,87.13
2019-06-18T06:55:03.220Z,32.40
2019-06-18T06:57:32.637Z,25.07
2019-06-18T06:59:59.131Z,27.87
2019-06-18T07:02:26.433Z,25.93
2019-06-18T07:04:53.569Z,43.20
2019-06-18T07:07:20.665Z,30.43
2019-06-18T07:09:48.024Z,35.33
2019-06-18T07:12:15.274Z,40.53
2019-06-18T07:14:42.997Z,26.17
2019-06-18T07:17:12.555Z,17.27
2019-06-18T07:19:52.425Z,22.00
2019-06-18T07:22:09.152Z,17.57
2019-06-18T07:24:36.466Z,21.27
2019-06-18T07:27:03.713Z,18.73
2019-06-18T07:29:32.382Z,39.80
2019-06-18T07:32:02.399Z,31.40
2019-06-18T07:34:29.241Z,21.37
2019-06-18T07:36:56.568Z,21.83
2019-06-18T07:39:23.801Z,37.30
2019-06-18T07:41:53.338Z,47.30
2019-06-18T07:44:20.020Z,99.87
2019-06-18T07:46:47.139Z,44.93
2019-06-18T07:49:14.710Z,63.87
2019-06-18T07:51:42.489Z,53.07
2019-06-18T07:54:12.356Z,43.60
2019-06-18T07:56:39.073Z,76.17
2019-06-18T07:59:06.311Z,53.13
2019-06-18T08:01:33.883Z,53.17
2019-06-18T08:04:03.181Z,39.90
2019-06-18T08:06:32.872Z,31.30
2019-06-18T08:08:59.532Z,29.47
2019-06-18T08:11:26.729Z,34.73
2019-06-18T08:13:54.277Z,20.07
2019-06-18T08:16:23.310Z,45.53
2019-06-18T08:18:52.876Z,41.90
2019-06-18T08:21:19.940Z,31.20
2019-06-18T08:23:47.228Z,50.83
2019-06-18T08:26:14.461Z,40.07
2019-06-18T08:28:43.395Z,28.00
2019-06-18T08:31:13.054Z,37.90
2019-06-18T08:33:42.460Z,41.77
2019-06-18T08:36:09.591Z,34.47
2019-06-18T08:38:38.554Z,24.37
2019-06-18T08:41:05.812Z,41.47
2019-06-18T08:43:33.294Z,31.07
2019-06-18T08:46:02.739Z,19.60
2019-06-18T08:48:29.865Z,38.83
2019-06-18T08:50:57.810Z,54.07
2019-06-18T08:53:25.189Z,64.33
2019-06-18T08:55:52.790Z,26.67
2019-06-18T08:58:22.579Z,38.20
2019-06-18T09:00:49.257Z,62.17
2019-06-18T09:03:25.531Z,63.33
2019-06-18T09:05:46.101Z,79.53
2019-06-18T09:08:13.626Z,84.97
2019-06-18T09:10:42.423Z,35.27
2019-06-18T09:13:09.858Z,93.77
2019-06-18T09:15:37.051Z,64.87
2019-06-18T09:18:04.268Z,75.50
2019-06-18T09:20:33.814Z,80.63
2019-06-18T09:23:03.178Z,88.43
2019-06-18T09:25:30.033Z,48.87
2019-06-18T09:27:57.279Z,48.73
2019-06-18T09:30:28.119Z,56.23
2019-06-18T09:32:55.758Z,75.83
2019-06-18T09:35:23.080Z,112.37
2019-06-18T09:37:50.289Z,108.50
2019-06-18T09:40:17.467Z,84.17
2019-06-18T09:42:44.665Z,60.83
2019-06-18T09:45:13.603Z,49.03
2019-06-18T09:47:42.461Z,38.63
2019-06-18T09:50:12.830Z,40.53
2019-06-18T09:52:39.693Z,43.03
2019-06-18T09:55:06.983Z,36.60
2019-06-18T09:57:34.217Z,39.40
2019-06-18T10:00:02.989Z,47.03
2019-06-18T10:02:32.628Z,44.33
2019-06-18T10:04:59.698Z,44.63
2019-06-18T10:07:26.949Z,50.00
2019-06-18T10:09:54.282Z,45.67
2019-06-18T10:12:22.885Z,56.23
2019-06-18T10:14:50.259Z,60.07
2019-06-18T10:17:17.454Z,44.47
2019-06-18T10:19:44.686Z,55.77
2019-06-18T10:22:14.048Z,46.70
2019-06-18T10:24:42.309Z,44.50
2019-06-18T10:27:09.749Z,43.57
2019-06-18T10:29:57.795Z,52.27
2019-06-18T10:32:06.061Z,45.97
2019-06-18T10:34:33.330Z,32.77
2019-06-18T10:37:00.621Z,31.97
2019-06-18T10:39:27.828Z,44.40
2019-06-18T10:41:55.074Z,24.00
2019-06-18T10:44:23.133Z,35.63
2019-06-18T10:46:52.683Z,35.13
2019-06-18T10:49:19.429Z,25.90
2019-06-18T10:51:56.494Z,48.83
2019-06-18T10:54:16.054Z,32.77
2019-06-18T10:56:43.359Z,54.77
2019-06-18T10:59:10.485Z,60.73
2019-06-18T11:01:37.817Z,46.67
2019-06-18T11:04:05.069Z,52.13
2019-06-18T11:06:33.018Z,77.47
2019-06-18T11:09:02.741Z,59.90
2019-06-18T11:11:29.683Z,60.53
2019-06-18T11:14:07.738Z,59.03
2019-06-18T11:16:26.144Z,57.90
2019-06-18T11:18:53.403Z,63.97
2019-06-18T11:21:22.734Z,52.53
2019-06-18T11:23:49.862Z,56.60
2019-06-18T11:26:17.060Z,50.37
2019-06-18T11:28:44.397Z,48.93
2019-06-18T11:31:13.922Z,44.57
2019-06-18T11:33:41.080Z,49.37
2019-06-18T11:36:08.211Z,59.60
2019-06-18T11:38:35.425Z,50.93
2019-06-18T11:41:02.993Z,48.33
2019-06-18T11:43:30.385Z,47.87
2019-06-18T11:45:57.743Z,54.10
2019-06-18T11:48:24.957Z,59.43
2019-06-18T11:50:52.777Z,51.37
2019-06-18T11:53:22.689Z,53.90
2019-06-18T11:55:49.580Z,49.80
2019-06-18T11:58:17.084Z,56.53
2019-06-18T12:00:44.299Z,63.57
2019-06-18T12:03:13.094Z,48.17
2019-06-18T12:05:42.921Z,48.00
2019-06-18T12:08:09.703Z,60.10
2019-06-18T12:10:36.905Z,45.17
2019-06-18T12:13:04.069Z,38.90
2019-06-18T12:15:33.894Z,31.70
2019-06-18T12:18:01.179Z,36.83
2019-06-18T12:20:28.498Z,43.47
2019-06-18T12:22:55.737Z,40.57
2019-06-18T12:25:23.001Z,37.27
2019-06-18T12:27:53.052Z,53.00
2019-06-18T12:30:22.451Z,49.53
2019-06-18T12:32:54.336Z,36.87
2019-06-18T12:35:17.713Z,65.47
2019-06-18T12:37:44.891Z,51.37
2019-06-18T12:40:13.410Z,65.57
2019-06-18T12:42:42.852Z,50.37
2019-06-18T12:45:12.714Z,63.90
2019-06-18T12:47:42.798Z,66.73
2019-06-18T12:50:09.569Z,59.47
2019-06-18T12:52:36.865Z,56.77
2019-06-18T12:55:04.989Z,58.83
2019-06-18T12:57:32.378Z,51.10
2019-06-18T12:59:59.694Z,49.17
2019-06-18T13:02:26.914Z,48.00
2019-06-18T13:04:54.406Z,53.23
2019-06-18T13:07:22.907Z,57.37
2019-06-18T13:09:52.746Z,55.77
2019-06-18T13:12:19.369Z,46.17
2019-06-18T13:14:46.540Z,44.33
2019-06-18T13:17:13.734Z,52.67
2019-06-18T13:19:42.151Z,43.57
2019-06-18T13:22:13.248Z,51.97
2019-06-18T13:24:38.736Z,53.70
2019-06-18T13:27:05.893Z,54.00
2019-06-18T13:29:33.174Z,46.80
2019-06-18T13:32:00.298Z,32.40
2019-06-18T13:34:27.499Z,22.03
2019-06-18T13:36:54.677Z,18.03
2019-06-18T13:39:22.459Z,14.50
2019-06-18T13:41:53.319Z,15.40
2019-06-18T13:44:20.077Z,15.80
2019-06-18T13:46:47.504Z,17.97
2019-06-18T13:49:14.753Z,15.10
2019-06-18T13:51:44.021Z,14.97
2019-06-18T13:54:15.088Z,14.17
2019-06-18T13:56:40.174Z,12.17
2019-06-18T13:59:07.407Z,9.40
2019-06-18T14:01:34.596Z,8.77
2019-06-18T14:04:03.662Z,12.90
2019-06-18T14:06:33.428Z,15.37
2019-06-18T14:09:02.346Z,18.83
2019-06-18T14:11:32.397Z,28.07
2019-06-18T14:13:59.029Z,31.60
2019-06-18T14:16:29.046Z,31.07
2019-06-18T14:18:55.626Z,33.67
2019-06-18T14:21:22.864Z,35.60
2019-06-18T14:24:00.544Z,34.27
2019-06-18T14:26:19.093Z,36.60
2019-06-18T14:28:46.394Z,38.20
2019-06-18T14:31:13.517Z,35.00
2019-06-18T14:33:40.757Z,39.43
2019-06-18T14:36:08.398Z,36.40
2019-06-18T14:38:38.029Z,26.27
2019-06-18T14:41:14.013Z,25.23
2019-06-18T14:43:36.660Z,23.37
2019-06-18T14:46:04.103Z,22.17
2019-06-18T14:48:31.924Z,20.77
2019-06-18T14:50:59.197Z,21.97
2019-06-18T14:53:28.489Z,27.83
2019-06-18T14:55:55.517Z,26.77
2019-06-18T14:58:22.711Z,28.03
2019-06-18T15:00:49.961Z,34.03
2019-06-18T15:03:18.209Z,32.30
2019-06-18T15:05:45.424Z,32.57
2019-06-18T15:08:12.933Z,39.43
2019-06-18T15:10:40.225Z,41.60
2019-06-18T15:13:07.450Z,49.10
2019-06-18T15:15:34.533Z,38.47
2019-06-18T15:18:03.760Z,43.10
2019-06-18T15:20:33.181Z,42.10
2019-06-18T15:23:00.470Z,39.50
2019-06-18T15:25:27.732Z,44.30
2019-06-18T15:27:54.927Z,42.43
2019-06-18T15:30:22.004Z,46.53
2019-06-18T15:32:49.637Z,48.90
2019-06-18T15:35:16.936Z,55.27
2019-06-18T15:37:44.170Z,50.90
2019-06-18T15:40:13.500Z,47.50
2019-06-18T15:42:43.283Z,42.17
2019-06-18T15:45:13.315Z,61.50
2019-06-18T15:47:42.926Z,55.27
2019-06-18T15:50:09.768Z,43.60
2019-06-18T15:52:36.981Z,46.17
2019-06-18T15:55:04.320Z,51.47
2019-06-18T15:57:35.521Z,54.30
2019-06-18T16:00:00.849Z,48.63
2019-06-18T16:02:28.160Z,49.97
2019-06-18T16:04:55.497Z,50.47
2019-06-18T16:07:22.888Z,52.67
2019-06-18T16:09:50.216Z,46.30
2019-06-18T16:12:17.450Z,39.83
2019-06-18T16:14:44.685Z,54.10
2019-06-18T16:17:12.458Z,39.87
2019-06-18T16:19:42.513Z,39.43
2019-06-18T16:22:09.328Z,47.07
2019-06-18T16:24:36.670Z,42.77
2019-06-18T16:27:03.999Z,40.53
2019-06-18T16:29:33.004Z,30.70
2019-06-18T16:32:00.429Z,30.43
2019-06-18T16:34:27.643Z,39.17
2019-06-18T16:36:54.849Z,31.73
2019-06-18T16:39:23.285Z,24.57
2019-06-18T16:41:53.120Z,27.23
2019-06-18T16:44:20.496Z,28.80
2019-06-18T16:46:47.751Z,25.67
2019-06-18T16:49:14.936Z,25.90
2019-06-18T16:51:43.354Z,23.37
2019-06-18T16:54:12.863Z,26.80
2019-06-18T16:56:42.538Z,38.10
2019-06-18T16:59:15.469Z,37.13
2019-06-18T17:01:42.853Z,29.77
2019-06-18T17:04:10.082Z,21.47
2019-06-18T17:06:37.168Z,16.87
2019-06-18T17:09:07.265Z,17.33
2019-06-18T17:11:34.566Z,33.63
2019-06-18T17:14:03.737Z,20.20
2019-06-18T17:16:31.308Z,21.30
2019-06-18T17:18:58.849Z,23.03
2019-06-18T17:21:26.914Z,24.20
2019-06-18T17:23:54.352Z,15.77
2019-06-18T17:26:35.637Z,19.60
2019-06-18T17:28:52.962Z,26.00
2019-06-18T17:31:19.809Z,31.00
2019-06-18T17:33:46.941Z,26.23
2019-06-18T17:36:14.313Z,23.40
2019-06-18T17:38:44.462Z,23.40
2019-06-18T17:41:10.797Z,27.37
2019-06-18T17:43:51.265Z,24.07
2019-06-18T17:46:07.197Z,24.57
2019-06-18T17:48:34.338Z,18.57
2019-06-18T17:51:01.541Z,15.67
2019-06-18T17:53:28.661Z,15.33
2019-06-18T17:56:01.999Z,15.40
2019-06-18T17:58:24.929Z,11.47
2019-06-18T18:00:52.275Z,10.03
2019-06-18T18:03:19.526Z,13.43
2019-06-18T18:05:48.729Z,8.77
2019-06-18T18:08:16.189Z,7.80
2019-06-18T18:10:43.499Z,9.20
2019-06-18T18:13:10.904Z,9.13
2019-06-18T18:15:38.144Z,11.30
2019-06-18T18:18:05.477Z,6.87
2019-06-18T18:20:34.361Z,6.40
2019-06-18T18:23:03.119Z,7.50
2019-06-18T18:25:32.666Z,5.73
2019-06-18T18:28:02.700Z,5.63
2019-06-18T18:30:29.636Z,4.80
2019-06-18T18:32:56.893Z,4.60
2019-06-18T18:35:24.553Z,6.03
2019-06-18T18:37:51.779Z,6.40
2019-06-18T18:40:19.036Z,14.17
2019-06-18T18:42:46.083Z,11.77
2019-06-18T18:45:13.587Z,8.63
2019-06-18T18:47:43.070Z,6.13
2019-06-18T18:50:12.923Z,5.30
2019-06-18T18:52:42.100Z,7.20
2019-06-18T18:55:09.453Z,13.13
2019-06-18T18:57:36.682Z,15.77
2019-06-18T19:00:09.211Z,6.43
2019-06-18T19:02:36.529Z,8.03
2019-06-18T19:05:04.025Z,10.97
2019-06-18T19:07:32.590Z,12.90
2019-06-18T19:09:59.954Z,10.90
2019-06-18T19:12:27.028Z,8.40
2019-06-18T19:14:54.137Z,8.57
2019-06-18T19:17:23.154Z,8.87
2019-06-18T19:19:53.160Z,9.00
2019-06-18T19:22:19.837Z,8.53
2019-06-18T19:24:47.043Z,9.43
2019-06-18T19:27:14.265Z,10.73
2019-06-18T19:29:42.915Z,10.20
2019-06-18T19:32:13.099Z,11.53
2019-06-18T19:34:39.864Z,10.53
2019-06-18T19:37:07.051Z,11.90
2019-06-18T19:39:34.146Z,11.50
2019-06-18T19:42:02.338Z,13.00
2019-06-18T19:44:29.700Z,12.60
2019-06-18T19:46:56.941Z,11.00
2019-06-18T19:49:23.949Z,11.33
2019-06-18T19:51:52.271Z,10.87
2019-06-18T19:54:22.054Z,12.90
2019-06-18T19:56:48.897Z,11.27
2019-06-18T19:59:15.941Z,13.27
2019-06-18T20:01:43.218Z,10.20
2019-06-18T20:04:13.136Z,10.87
2019-06-18T20:06:42.541Z,10.73
2019-06-18T20:09:09.461Z,11.93
2019-06-18T20:11:36.919Z,9.37
2019-06-18T20:14:08.722Z,11.43
2019-06-18T20:16:37.176Z,10.43
2019-06-18T20:19:04.558Z,10.80
2019-06-18T20:21:32.889Z,12.80
2019-06-18T20:24:03.688Z,13.37
2019-06-18T20:26:33.013Z,11.27
2019-06-18T20:29:03.197Z,13.37
2019-06-18T20:31:29.705Z,13.20
2019-06-18T20:33:57.666Z,11.77
2019-06-18T20:36:25.233Z,12.30
2019-06-18T20:38:53.143Z,13.10
2019-06-18T20:41:23.134Z,13.53
2019-06-18T20:43:53.000Z,12.10
2019-06-18T20:46:23.033Z,12.00
2019-06-18T20:48:50.368Z,11.00
2019-06-18T20:51:17.714Z,10.73
2019-06-18T20:53:45.022Z,11.23
2019-06-18T20:56:13.147Z,10.83
2019-06-18T20:58:42.293Z,11.97
2019-06-18T21:01:09.974Z,11.70
2019-06-18T21:03:37.789Z,14.90
2019-06-18T21:06:05.119Z,12.30
2019-06-18T21:08:32.611Z,14.60
2019-06-18T21:11:00.016Z,13.50
2019-06-18T21:13:27.310Z,14.43
2019-06-18T21:15:54.843Z,12.90
2019-06-18T21:18:23.382Z,15.50
2019-06-18T21:20:52.427Z,12.80
2019-06-18T21:23:22.507Z,15.30
2019-06-18T21:25:49.244Z,13.77
2019-06-18T21:28:22.692Z,13.40
2019-06-18T21:30:45.664Z,15.50
2019-06-18T21:33:13.101Z,17.80
2019-06-18T21:35:42.343Z,18.47
2019-06-18T21:38:12.015Z,17.53
2019-06-18T21:40:39.021Z,17.87
2019-06-18T21:43:06.247Z,16.57
2019-06-18T21:45:33.664Z,15.17
2019-06-18T21:48:03.051Z,20.43
2019-06-18T21:50:30.005Z,17.87
2019-06-18T21:52:57.187Z,21.57
2019-06-18T21:55:24.593Z,16.97
2019-06-18T21:57:52.472Z,15.80
2019-06-18T22:00:23.910Z,17.07
2019-06-18T22:02:52.644Z,21.77
2019-06-18T22:05:22.779Z,29.43
2019-06-18T22:07:49.257Z,24.23
2019-06-18T22:10:17.317Z,21.73
2019-06-18T22:12:44.506Z,15.27
2019-06-18T22:15:12.985Z,17.27
2019-06-18T22:17:42.643Z,22.00
2019-06-18T22:20:16.754Z,21.47
2019-06-18T22:22:44.022Z,30.10
2019-06-18T22:25:12.415Z,28.57
2019-06-18T22:27:42.448Z,24.63
2019-06-18T22:30:10.044Z,23.47
2019-06-18T22:32:37.232Z,26.33
2019-06-18T22:35:04.586Z,27.40
2019-06-18T22:37:32.783Z,31.93
2019-06-18T22:40:00.178Z,40.97
2019-06-18T22:42:27.438Z,31.00
2019-06-18T22:44:55.469Z,23.30
2019-06-18T22:47:23.099Z,29.80
2019-06-18T22:49:50.389Z,26.90
2019-06-18T22:52:17.717Z,34.77
2019-06-18T22:54:44.920Z,26.17
2019-06-18T22:57:13.711Z,26.83
2019-06-18T22:59:43.089Z,23.17
2019-06-18T23:02:12.471Z,31.23
2019-06-18T23:04:39.808Z,20.30
2019-06-18T23:07:07.072Z,23.67
2019-06-18T23:09:34.136Z,48.00
2019-06-18T23:12:02.246Z,41.50
2019-06-18T23:14:32.402Z,29.03
2019-06-18T23:16:59.511Z,20.67
2019-06-18T23:19:26.995Z,26.47
2019-06-18T23:21:54.101Z,28.00
2019-06-18T23:24:21.300Z,39.33
2019-06-18T23:26:48.656Z,35.23
2019-06-18T23:29:15.956Z,70.17
2019-06-18T23:31:43.478Z,36.63
2019-06-18T23:34:13.068Z,32.37
2019-06-18T23:36:40.257Z,33.70
2019-06-18T23:39:07.919Z,27.57
2019-06-18T23:41:35.082Z,27.43
2019-06-18T23:44:02.791Z,21.37
2019-06-18T23:46:30.201Z,22.83
2019-06-18T23:48:57.541Z,21.17
2019-06-18T23:51:24.664Z,24.87
2019-06-18T23:53:53.539Z,24.23
2019-06-18T23:56:22.761Z,33.90
2019-06-18T23:58:50.142Z,37.97
